Time;durP1;ratioP1;P1;durP2;ratioP2;P2;SDS_P1;SDS_P2;PMS_P1;PMS_P2;Temp;Humidity;BMP_temperature;BMP_pressure;BME280_temperature;BME280_humidity;BME280_pressure;Samples;Min_cycle;Max_cycle;Signal;HPM_P1;HPM_P2
2022/03/09 00:01:13;;;;;;;6.57;3.70;;;-9.40;99.90;;;;;;4349761;32;20109;-64
2022/03/09 00:03:39;;;;;;;6.62;4.05;;;-9.30;99.90;;;;;;4362483;32;20499;-63
2022/03/09 00:06:05;;;;;;;5.47;3.20;;;-9.30;99.90;;;;;;4349788;32;20081;-63
2022/03/09 00:08:32;;;;;;;5.87;3.75;;;-9.40;99.90;;;;;;4350086;32;20082;-63
2022/03/09 00:10:58;;;;;;;5.78;4.07;;;-9.50;99.90;;;;;;4364774;32;20165;-63
2022/03/09 00:13:24;;;;;;;6.50;3.87;;;-9.50;99.90;;;;;;4378938;32;20093;-63
2022/03/09 00:15:51;;;;;;;6.25;3.60;;;-9.50;99.90;;;;;;4379060;32;20101;-63
2022/03/09 00:18:19;;;;;;;6.65;4.10;;;-9.50;99.90;;;;;;4378913;32;20089;-63
2022/03/09 00:20:45;;;;;;;6.25;3.28;;;-9.60;99.90;;;;;;4379547;32;20081;-62
2022/03/09 00:23:12;;;;;;;5.75;3.50;;;-9.60;99.90;;;;;;4379765;32;20114;-62
2022/03/09 00:25:38;;;;;;;7.85;3.45;;;-9.60;99.90;;;;;;4353194;32;20093;-63
2022/03/09 00:28:05;;;;;;;6.85;3.58;;;-9.60;99.90;;;;;;4378824;32;20158;-63
2022/03/09 00:30:31;;;;;;;7.10;3.15;;;-9.60;99.90;;;;;;4378964;32;20081;-63
2022/03/09 00:32:57;;;;;;;6.12;3.50;;;-9.70;99.90;;;;;;4353021;32;20073;-63
2022/03/09 00:35:24;;;;;;;5.93;3.70;;;-9.80;99.90;;;;;;4364858;32;20097;-63
2022/03/09 00:37:50;;;;;;;5.20;3.55;;;-9.80;99.90;;;;;;4378748;32;20088;-62
2022/03/09 00:40:17;;;;;;;6.03;4.00;;;-9.90;99.90;;;;;;4378551;32;20347;-62
2022/03/09 00:42:43;;;;;;;6.45;3.90;;;-9.90;99.90;;;;;;4352603;32;20075;-62
2022/03/09 00:45:10;;;;;;;5.55;3.20;;;-9.80;99.90;;;;;;4364478;32;20488;-63
2022/03/09 00:47:37;;;;;;;6.20;3.92;;;-9.90;99.90;;;;;;4378567;32;20091;-63
2022/03/09 00:50:05;;;;;;;6.05;4.15;;;-9.90;99.90;;;;;;4364849;32;20478;-62
2022/03/09 00:52:32;;;;;;;5.30;3.50;;;-9.90;99.90;;;;;;4365249;32;20074;-62
2022/03/09 00:54:58;;;;;;;5.37;3.42;;;-9.90;99.90;;;;;;4364914;32;20089;-62
2022/03/09 00:57:24;;;;;;;5.90;3.33;;;-9.90;99.90;;;;;;4378764;32;20150;-63
2022/03/09 00:59:51;;;;;;;6.40;3.67;;;-10.00;99.90;;;;;;4378744;32;20094;-64
2022/03/09 01:02:17;;;;;;;5.50;3.55;;;-10.00;99.90;;;;;;4378188;32;20544;-64
2022/03/09 01:04:43;;;;;;;5.82;3.60;;;-10.00;99.90;;;;;;4378433;32;20069;-63
2022/03/09 01:07:10;;;;;;;5.28;3.20;;;-10.10;99.90;;;;;;4365296;32;20512;-63
2022/03/09 01:09:36;;;;;;;6.03;3.53;;;-10.00;99.90;;;;;;4364550;32;20158;-63
2022/03/09 01:12:03;;;;;;;6.10;3.60;;;-10.00;99.90;;;;;;4364337;32;20085;-63
2022/03/09 01:14:30;;;;;;;8.32;4.22;;;-10.10;99.90;;;;;;4340566;32;20092;-63
2022/03/09 01:16:56;;;;;;;6.20;3.92;;;-10.30;99.90;;;;;;4364579;32;20505;-62
2022/03/09 01:19:22;;;;;;;6.82;4.90;;;-10.20;99.90;;;;;;4364157;32;20096;-62
2022/03/09 01:21:49;;;;;;;6.80;4.93;;;-10.30;99.90;;;;;;4351704;32;20089;-63
2022/03/09 01:24:15;;;;;;;7.57;5.20;;;-10.40;99.90;;;;;;4378081;32;20156;-63
2022/03/09 01:26:42;;;;;;;8.05;5.18;;;-10.40;99.90;;;;;;4378460;32;20088;-64
2022/03/09 01:29:09;;;;;;;7.78;5.03;;;-10.50;99.90;;;;;;4352030;32;20154;-62
2022/03/09 01:31:36;;;;;;;7.53;4.75;;;-10.50;99.90;;;;;;4378684;32;20481;-62
2022/03/09 01:34:02;;;;;;;8.30;5.03;;;-10.50;99.90;;;;;;4364738;32;20440;-62
2022/03/09 01:36:28;;;;;;;7.85;4.70;;;-10.60;99.90;;;;;;4363988;32;20082;-63
2022/03/09 01:38:55;;;;;;;7.65;4.47;;;-10.50;99.90;;;;;;4364621;32;20072;-62
2022/03/09 01:41:22;;;;;;;9.15;4.55;;;-10.50;99.90;;;;;;4378118;32;20099;-62
2022/03/09 01:44:15;;;;;;;8.02;5.10;;;-10.60;99.90;;;;;;4364189;32;20085;-63
2022/03/09 01:46:42;;;;;;;6.22;4.45;;;-10.50;99.90;;;;;;4351230;32;20518;-63
2022/03/09 01:49:10;;;;;;;8.52;4.57;;;-10.50;99.90;;;;;;4377413;32;20114;-63
2022/03/09 01:51:42;;;;;;;8.25;4.82;;;-10.70;99.90;;;;;;4364204;32;20088;-63
2022/03/09 01:54:09;;;;;;;6.22;4.35;;;-10.60;99.90;;;;;;4369120;32;20082;-63
2022/03/09 01:56:37;;;;;;;7.15;4.22;;;-10.70;99.90;;;;;;4354072;32;20087;-62
2022/03/09 01:59:09;;;;;;;6.75;4.20;;;-10.60;99.90;;;;;;4342573;32;20078;-63
2022/03/09 02:01:36;;;;;;;8.35;4.75;;;-10.70;99.90;;;;;;4353222;32;20072;-63
2022/03/09 02:04:05;;;;;;;8.15;4.60;;;-10.70;99.90;;;;;;4363704;32;20076;-62
2022/03/09 02:06:33;;;;;;;7.20;4.12;;;-10.70;99.90;;;;;;4363786;32;20066;-63
2022/03/09 02:11:48;;;;;;;7.47;3.92;;;-10.60;99.90;;;;;;4365908;32;20082;-62
2022/03/09 02:14:29;;;;;;;6.75;4.62;;;-10.60;99.90;;;;;;4363337;32;20601;-61
2022/03/09 02:16:57;;;;;;;8.23;4.47;;;-10.60;99.90;;;;;;4363670;32;20086;-62
2022/03/09 02:19:23;;;;;;;7.70;4.68;;;-10.50;99.90;;;;;;4351280;32;20086;-62
2022/03/09 02:21:57;;;;;;;7.93;5.15;;;-10.60;99.90;;;;;;4351833;32;20078;-63
2022/03/09 02:24:26;;;;;;;8.75;4.75;;;-10.50;99.90;;;;;;4363677;32;20078;-62
2022/03/09 02:26:52;;;;;;;10.32;5.87;;;-10.60;99.90;;;;;;4338939;32;20496;-63
2022/03/09 02:29:18;;;;;;;9.35;6.50;;;-10.70;99.90;;;;;;4363119;32;20147;-63
2022/03/09 02:31:45;;;;;;;8.45;5.57;;;-10.70;99.90;;;;;;4350763;32;20086;-63
2022/03/09 02:34:11;;;;;;;9.80;5.82;;;-10.70;99.90;;;;;;4363579;32;20076;-63
2022/03/09 02:36:37;;;;;;;7.65;5.47;;;-10.60;99.90;;;;;;4351479;32;20086;-62
2022/03/09 02:39:04;;;;;;;6.95;4.30;;;-10.60;99.90;;;;;;4350898;32;20070;-61
2022/03/09 02:41:33;;;;;;;6.32;4.57;;;-10.70;99.90;;;;;;4377332;32;20153;-62
2022/03/09 02:44:04;;;;;;;5.90;4.43;;;-10.70;99.90;;;;;;4351339;32;20097;-62
2022/03/09 02:46:30;;;;;;;6.12;4.45;;;-10.70;99.90;;;;;;4351053;32;20094;-63
2022/03/09 02:48:57;;;;;;;6.47;4.57;;;-10.80;99.90;;;;;;4376820;32;20166;-63
2022/03/09 02:51:23;;;;;;;6.80;4.20;;;-10.90;99.90;;;;;;4377420;32;20070;-63
2022/03/09 02:53:49;;;;;;;7.28;4.53;;;-10.80;99.90;;;;;;4377073;32;20508;-62
2022/03/09 02:56:16;;;;;;;6.43;3.83;;;-10.80;99.90;;;;;;4350823;32;20161;-62
2022/03/09 02:58:44;;;;;;;7.82;5.05;;;-10.80;99.90;;;;;;4363479;32;20512;-62
2022/03/09 03:01:13;;;;;;;6.47;4.37;;;-10.80;99.90;;;;;;4363067;32;20145;-62
2022/03/09 03:03:41;;;;;;;7.82;4.90;;;-10.80;99.90;;;;;;4350528;32;20170;-62
2022/03/09 03:06:09;;;;;;;6.12;3.95;;;-10.80;99.90;;;;;;4350416;32;20079;-63
2022/03/09 03:08:37;;;;;;;7.10;4.35;;;-10.70;99.90;;;;;;4362787;32;20070;-62
2022/03/09 03:11:06;;;;;;;6.00;3.85;;;-10.70;99.90;;;;;;4376766;32;20077;-62
2022/03/09 03:13:32;;;;;;;7.43;4.40;;;-10.70;99.90;;;;;;4350588;32;20530;-62
2022/03/09 03:15:59;;;;;;;6.03;4.35;;;-10.80;99.90;;;;;;4376645;32;20085;-62
2022/03/09 03:18:25;;;;;;;5.95;4.30;;;-10.70;99.90;;;;;;4363285;32;20094;-63
2022/03/09 03:20:54;;;;;;;8.80;4.75;;;-10.70;99.90;;;;;;4376448;32;20157;-63
2022/03/09 03:23:32;;;;;;;5.65;4.18;;;-10.70;99.90;;;;;;4350626;32;20098;-62
2022/03/09 03:25:59;;;;;;;7.82;4.35;;;-10.70;99.90;;;;;;4362886;32;20169;-63
2022/03/09 03:28:26;;;;;;;6.80;4.72;;;-10.60;99.90;;;;;;4350072;32;20175;-61
2022/03/09 03:30:53;;;;;;;7.32;4.50;;;-10.70;99.90;;;;;;4350179;32;20078;-62
2022/03/09 03:33:21;;;;;;;6.72;4.10;;;-10.70;99.90;;;;;;4337885;32;20540;-63
2022/03/09 03:35:48;;;;;;;6.55;4.20;;;-10.70;99.90;;;;;;4350087;32;20520;-63
2022/03/09 03:38:16;;;;;;;6.25;4.25;;;-10.70;99.90;;;;;;4363665;32;20477;-62
2022/03/09 03:40:43;;;;;;;9.55;5.20;;;-10.60;99.90;;;;;;4376511;32;20070;-64
2022/03/09 03:43:09;;;;;;;7.45;4.68;;;-10.60;99.90;;;;;;4350727;32;20073;-62
2022/03/09 03:45:36;;;;;;;8.32;5.80;;;-10.70;99.90;;;;;;4362888;32;20146;-62
2022/03/09 03:48:03;;;;;;;7.50;5.72;;;-10.60;99.90;;;;;;4349721;32;20093;-62
2022/03/09 03:50:29;;;;;;;9.18;5.80;;;-10.60;99.90;;;;;;4350282;32;20527;-62
2022/03/09 03:52:56;;;;;;;14.87;8.05;;;-10.40;99.90;;;;;;4376665;32;20165;-62
2022/03/09 03:55:22;;;;;;;13.93;7.78;;;-10.60;99.90;;;;;;4362419;32;20085;-61
2022/03/09 03:57:48;;;;;;;13.23;7.18;;;-10.50;99.90;;;;;;4350452;32;20111;-61
2022/03/09 04:00:16;;;;;;;13.50;7.25;;;-10.60;99.90;;;;;;4350236;32;20167;-62
2022/03/09 04:02:42;;;;;;;12.68;7.05;;;-10.60;99.90;;;;;;4349865;32;20070;-63
2022/03/09 04:05:08;;;;;;;14.32;8.30;;;-10.60;99.90;;;;;;4362785;32;20588;-63
2022/03/09 04:07:35;;;;;;;15.57;10.10;;;-10.50;99.90;;;;;;4351331;32;20074;-63
2022/03/09 04:10:02;;;;;;;10.63;6.97;;;-10.50;99.90;;;;;;4363838;32;20074;-63
2022/03/09 04:12:28;;;;;;;8.82;6.03;;;-10.50;99.90;;;;;;4353262;32;20167;-63
2022/03/09 04:14:55;;;;;;;8.52;5.95;;;-10.40;99.90;;;;;;4377687;32;20156;-63
2022/03/09 04:17:21;;;;;;;14.05;8.82;;;-10.50;99.90;;;;;;4337919;32;20071;-64
2022/03/09 04:19:47;;;;;;;10.73;7.32;;;-10.40;99.90;;;;;;4376013;32;20153;-62
2022/03/09 04:22:14;;;;;;;9.63;5.97;;;-10.40;99.90;;;;;;4362202;32;20164;-63
2022/03/09 04:24:40;;;;;;;8.63;5.37;;;-10.30;99.90;;;;;;4376441;32;20174;-63
2022/03/09 04:27:06;;;;;;;9.15;5.12;;;-10.40;99.90;;;;;;4338438;32;20090;-62
2022/03/09 04:29:33;;;;;;;13.75;8.10;;;-10.40;99.90;;;;;;4349844;32;20150;-63
2022/03/09 04:31:59;;;;;;;15.23;9.50;;;-10.40;99.90;;;;;;4363020;32;20069;-63
2022/03/09 04:34:25;;;;;;;12.95;7.40;;;-10.30;99.90;;;;;;4351093;32;20519;-62
2022/03/09 04:36:52;;;;;;;9.75;5.50;;;-10.40;99.90;;;;;;4362209;32;20077;-63
2022/03/09 04:39:18;;;;;;;8.02;5.30;;;-10.30;99.90;;;;;;4376943;32;20078;-63
2022/03/09 04:41:44;;;;;;;9.98;6.30;;;-10.20;99.90;;;;;;4362828;32;20085;-63
2022/03/09 04:44:11;;;;;;;11.48;6.65;;;-10.20;99.90;;;;;;4381301;32;20070;-63
2022/03/09 04:46:37;;;;;;;12.50;8.45;;;-10.20;99.90;;;;;;4382265;32;20082;-63
2022/03/09 04:49:03;;;;;;;10.27;6.07;;;-10.20;99.90;;;;;;4376114;32;20532;-63
2022/03/09 04:51:29;;;;;;;8.63;4.78;;;-10.10;99.90;;;;;;4362376;32;20087;-63
2022/03/09 04:53:56;;;;;;;9.20;5.20;;;-10.00;99.90;;;;;;4375808;32;20097;-62
2022/03/09 04:56:22;;;;;;;9.88;5.60;;;-10.00;99.90;;;;;;4377651;32;20158;-63
2022/03/09 04:58:48;;;;;;;8.23;4.70;;;-10.00;99.90;;;;;;4364536;32;20164;-62
2022/03/09 05:01:15;;;;;;;8.68;5.32;;;-10.00;99.90;;;;;;4364385;32;20749;-63
2022/03/09 05:03:41;;;;;;;7.90;5.22;;;-10.10;99.90;;;;;;4364963;32;20174;-62
2022/03/09 05:06:08;;;;;;;9.00;5.30;;;-10.00;99.90;;;;;;4379322;32;20082;-63
2022/03/09 05:08:35;;;;;;;7.65;5.00;;;-10.10;99.90;;;;;;4365112;32;20437;-63
2022/03/09 05:11:01;;;;;;;8.50;4.90;;;-10.00;99.90;;;;;;4352798;32;20084;-62
2022/03/09 05:13:27;;;;;;;8.77;4.47;;;-10.10;99.90;;;;;;4365546;32;20093;-63
2022/03/09 05:15:54;;;;;;;7.00;4.28;;;-10.00;99.90;;;;;;4379533;32;20077;-62
2022/03/09 05:18:20;;;;;;;7.22;4.70;;;-10.00;99.90;;;;;;4378916;32;20082;-63
2022/03/09 05:20:47;;;;;;;7.82;4.45;;;-9.90;99.90;;;;;;4365333;32;20177;-63
2022/03/09 05:23:14;;;;;;;6.72;3.92;;;-9.80;99.90;;;;;;4365212;32;20085;-62
2022/03/09 05:25:40;;;;;;;5.57;3.60;;;-9.70;99.90;;;;;;4352432;32;20522;-62
2022/03/09 05:28:07;;;;;;;3.65;2.40;;;-9.60;99.90;;;;;;4364921;32;20149;-61
2022/03/09 05:30:33;;;;;;;6.35;3.65;;;-9.70;99.90;;;;;;4378057;32;20145;-63
2022/03/09 05:32:59;;;;;;;7.45;4.00;;;-9.70;99.90;;;;;;4340111;32;20165;-60
2022/03/09 05:35:26;;;;;;;7.22;4.10;;;-9.50;99.90;;;;;;4378310;32;20583;-62
2022/03/09 05:37:52;;;;;;;5.68;3.40;;;-9.40;99.90;;;;;;4377899;32;20066;-62
2022/03/09 05:40:18;;;;;;;4.95;3.47;;;-9.10;99.90;;;;;;4364473;32;20084;-62
2022/03/09 05:42:45;;;;;;;6.57;3.90;;;-9.20;99.90;;;;;;4364634;32;20594;-62
2022/03/09 05:45:12;;;;;;;7.87;5.25;;;-9.50;99.90;;;;;;4378650;32;20527;-62
2022/03/09 05:47:39;;;;;;;8.23;5.10;;;-9.40;99.90;;;;;;4378314;32;20078;-63
2022/03/09 05:50:06;;;;;;;7.90;4.85;;;-9.50;99.90;;;;;;4364933;32;20077;-62
2022/03/09 05:52:32;;;;;;;7.78;5.57;;;-9.60;99.90;;;;;;4377737;32;20074;-62
2022/03/09 05:54:59;;;;;;;6.22;3.50;;;-9.50;99.90;;;;;;4364345;32;20160;-62
2022/03/09 05:57:25;;;;;;;7.00;4.80;;;-9.30;99.90;;;;;;4377665;32;20074;-62
2022/03/09 05:59:52;;;;;;;8.82;5.68;;;-9.30;99.90;;;;;;4378232;32;20158;-63
2022/03/09 06:02:18;;;;;;;7.47;5.40;;;-9.30;99.90;;;;;;4365101;32;20075;-61
2022/03/09 06:04:45;;;;;;;7.60;5.55;;;-9.40;99.90;;;;;;4378179;32;20074;-61
2022/03/09 06:07:11;;;;;;;7.07;5.05;;;-9.40;99.90;;;;;;4351823;32;20078;-62
2022/03/09 06:09:38;;;;;;;8.20;5.30;;;-9.20;99.90;;;;;;4364713;32;20073;-62
2022/03/09 06:12:05;;;;;;;8.43;5.60;;;-9.20;99.90;;;;;;4364100;32;20173;-60
2022/03/09 06:14:32;;;;;;;9.48;7.03;;;-9.20;99.90;;;;;;4378012;32;20089;-62
2022/03/09 06:16:58;;;;;;;8.43;5.85;;;-9.10;99.90;;;;;;4377835;32;20154;-62
2022/03/09 06:19:25;;;;;;;7.32;5.28;;;-8.90;99.90;;;;;;4351376;32;20544;-61
2022/03/09 06:21:51;;;;;;;7.30;4.78;;;-8.80;99.90;;;;;;4351817;32;20081;-61
2022/03/09 06:24:18;;;;;;;5.40;3.30;;;-8.90;99.90;;;;;;4351540;32;20184;-62
2022/03/09 06:26:47;;;;;;;7.20;4.15;;;-8.60;99.90;;;;;;4377849;32;20195;-62
2022/03/09 06:29:13;;;;;;;7.15;4.90;;;-8.50;99.90;;;;;;4363745;32;20593;-61
2022/03/09 06:31:42;;;;;;;12.48;6.78;;;-8.50;99.90;;;;;;4363258;32;20460;-61
2022/03/09 06:34:09;;;;;;;10.85;5.97;;;-8.80;99.90;;;;;;4364024;32;20166;-61
2022/03/09 06:36:35;;;;;;;8.40;5.72;;;-8.70;99.90;;;;;;4364268;32;20523;-62
2022/03/09 06:39:01;;;;;;;7.85;4.97;;;-8.70;99.90;;;;;;4378573;32;20066;-61
2022/03/09 06:41:28;;;;;;;10.80;6.53;;;-8.80;99.90;;;;;;4366317;32;20077;-62
2022/03/09 06:43:54;;;;;;;10.70;7.20;;;-8.70;99.90;;;;;;4374714;32;20090;-62
2022/03/09 06:46:22;;;;;;;8.18;5.70;;;-8.50;99.90;;;;;;4372728;32;20230;-62
2022/03/09 06:48:48;;;;;;;6.95;5.47;;;-8.60;99.90;;;;;;4372354;32;20141;-63
2022/03/09 06:51:28;;;;;;;8.10;5.87;;;-8.70;99.90;;;;;;3860510;37;20058;-63
2022/03/09 06:53:54;;;;;;;7.50;4.97;;;-8.90;99.90;;;;;;4419197;32;20255;-64
2022/03/09 06:56:21;;;;;;;6.70;4.50;;;-8.80;99.90;;;;;;4418461;32;20099;-62
2022/03/09 06:58:47;;;;;;;6.47;4.40;;;-8.80;99.90;;;;;;4418417;32;20510;-63
2022/03/09 07:01:13;;;;;;;7.70;4.93;;;-8.90;99.90;;;;;;4408044;32;20080;-63
2022/03/09 07:03:40;;;;;;;7.32;4.40;;;-8.90;99.90;;;;;;4403101;32;20559;-61
2022/03/09 07:06:06;;;;;;;6.78;4.40;;;-8.70;99.90;;;;;;4402820;32;20081;-62
2022/03/09 07:08:33;;;;;;;7.22;5.03;;;-8.80;99.90;;;;;;4403153;32;20070;-61
2022/03/09 07:11:00;;;;;;;7.68;5.47;;;-9.20;99.90;;;;;;4390007;32;20097;-61
2022/03/09 07:13:26;;;;;;;8.23;5.20;;;-8.90;99.90;;;;;;4416031;32;20081;-61
2022/03/09 07:15:53;;;;;;;10.02;5.87;;;-9.10;99.90;;;;;;4404041;32;20136;-61
2022/03/09 07:18:19;;;;;;;10.13;6.28;;;-9.20;99.90;;;;;;4402838;32;20089;-60
2022/03/09 07:20:45;;;;;;;7.43;4.60;;;-9.20;99.90;;;;;;4403737;32;20085;-62
2022/03/09 07:23:12;;;;;;;7.10;4.72;;;-9.20;99.90;;;;;;4403768;32;20432;-62
2022/03/09 07:25:40;;;;;;;7.62;4.37;;;-9.10;99.90;;;;;;4402749;32;20448;-62
2022/03/09 07:28:07;;;;;;;5.95;4.28;;;-9.10;99.90;;;;;;4404305;32;20151;-61
2022/03/09 07:30:35;;;;;;;7.82;4.28;;;-9.00;99.90;;;;;;4402835;32;20169;-61
2022/03/09 07:33:01;;;;;;;6.87;4.25;;;-9.10;99.90;;;;;;4402404;32;20093;-62
2022/03/09 07:35:28;;;;;;;6.60;3.95;;;-9.10;99.90;;;;;;4403999;32;20088;-60
2022/03/09 07:37:54;;;;;;;9.40;5.25;;;-9.00;99.90;;;;;;4402631;32;20085;-63
2022/03/09 07:40:21;;;;;;;6.90;4.72;;;-9.00;99.90;;;;;;4403831;32;20078;-63
2022/03/09 07:42:48;;;;;;;6.07;4.30;;;-9.10;99.90;;;;;;4402401;32;20073;-61
2022/03/09 07:45:14;;;;;;;5.97;3.97;;;-8.80;99.90;;;;;;4402167;32;20249;-60
2022/03/09 07:47:40;;;;;;;7.15;3.97;;;-8.70;99.90;;;;;;4403442;32;20463;-61
2022/03/09 07:50:08;;;;;;;6.10;4.37;;;-8.80;99.90;;;;;;4402341;32;20149;-62
2022/03/09 07:52:35;;;;;;;6.22;4.22;;;-8.80;99.90;;;;;;4403953;32;20081;-61
2022/03/09 07:55:01;;;;;;;7.30;4.68;;;-8.60;99.90;;;;;;4403861;32;20508;-62
2022/03/09 07:57:28;;;;;;;6.78;4.28;;;-8.50;99.90;;;;;;4377365;32;20130;-62
2022/03/09 07:59:54;;;;;;;8.27;5.18;;;-8.50;99.90;;;;;;4401982;32;20170;-61
2022/03/09 08:02:21;;;;;;;7.35;5.15;;;-8.80;99.90;;;;;;4381648;32;20169;-62
2022/03/09 08:04:50;;;;;;;8.18;5.10;;;-8.30;99.90;;;;;;4393630;32;20073;-62
2022/03/09 08:07:16;;;;;;;5.72;4.40;;;-8.30;99.90;;;;;;4394048;32;20097;-60
2022/03/09 08:09:42;;;;;;;6.72;4.78;;;-8.70;99.90;;;;;;4392585;32;20077;-61
2022/03/09 08:12:11;;;;;;;6.32;4.70;;;-8.80;99.90;;;;;;4404657;32;20077;-62
2022/03/09 08:14:38;;;;;;;7.03;4.70;;;-8.80;99.90;;;;;;4391959;32;20069;-60
2022/03/09 08:17:05;;;;;;;6.53;4.30;;;-8.60;99.90;;;;;;4392248;32;20142;-61
2022/03/09 08:19:31;;;;;;;6.75;3.95;;;-8.80;99.90;;;;;;4404491;32;20174;-60
2022/03/09 08:21:57;;;;;;;7.53;4.43;;;-8.30;99.90;;;;;;4391919;32;20093;-60
2022/03/09 08:24:24;;;;;;;8.70;4.32;;;-8.40;99.90;;;;;;4392096;32;20081;-60
2022/03/09 08:26:50;;;;;;;5.82;4.28;;;-8.40;99.90;;;;;;4404021;32;20082;-63
2022/03/09 08:29:17;;;;;;;9.18;4.50;;;-8.50;99.90;;;;;;4391273;32;20089;-62
2022/03/09 08:31:43;;;;;;;5.05;3.50;;;-8.30;99.90;;;;;;4393133;32;20081;-62
2022/03/09 08:34:09;;;;;;;6.05;4.50;;;-8.30;99.90;;;;;;4403955;32;20160;-62
2022/03/09 08:36:36;;;;;;;6.22;4.32;;;-8.30;99.90;;;;;;4404286;32;20065;-62
2022/03/09 08:39:02;;;;;;;6.85;4.40;;;-8.20;99.90;;;;;;4391609;32;20161;-61
2022/03/09 08:41:30;;;;;;;6.68;4.28;;;-8.30;99.90;;;;;;4391560;32;20239;-62
2022/03/09 08:43:56;;;;;;;6.43;4.32;;;-8.10;99.90;;;;;;4391422;32;20069;-62
2022/03/09 08:46:23;;;;;;;8.05;4.93;;;-8.00;99.90;;;;;;4391265;32;20077;-62
2022/03/09 08:48:49;;;;;;;7.60;5.03;;;-8.10;99.90;;;;;;4391216;32;20077;-63
2022/03/09 08:51:20;;;;;;;9.10;5.65;;;-8.20;99.90;;;;;;4392680;32;20089;-62
2022/03/09 08:53:50;;;;;;;8.02;4.40;;;-7.90;99.90;;;;;;4379216;32;20475;-61
2022/03/09 08:56:17;;;;;;;7.57;4.47;;;-8.00;99.90;;;;;;4392738;32;20093;-62
2022/03/09 08:58:43;;;;;;;6.95;4.32;;;-8.00;99.90;;;;;;4392395;32;20085;-63
2022/03/09 09:01:10;;;;;;;6.47;4.80;;;-7.80;99.90;;;;;;4391205;32;20158;-63
2022/03/09 09:03:37;;;;;;;6.43;4.40;;;-8.30;99.90;;;;;;4391299;32;20074;-62
2022/03/09 09:06:03;;;;;;;6.40;4.60;;;-8.10;99.90;;;;;;4392452;32;20085;-64
2022/03/09 09:08:30;;;;;;;6.25;4.37;;;-8.40;99.90;;;;;;4379169;32;20085;-63
2022/03/09 09:10:56;;;;;;;6.15;4.28;;;-8.30;99.90;;;;;;4392784;32;20090;-63
2022/03/09 09:13:22;;;;;;;6.37;4.00;;;-8.30;99.90;;;;;;4378280;32;20073;-62
2022/03/09 09:15:49;;;;;;;5.25;3.80;;;-8.30;99.90;;;;;;4391712;32;20471;-62
2022/03/09 09:18:16;;;;;;;8.02;4.65;;;-8.10;99.90;;;;;;4392789;32;20088;-61
2022/03/09 09:20:42;;;;;;;8.77;4.47;;;-8.10;99.90;;;;;;4392872;32;20081;-64
2022/03/09 09:23:08;;;;;;;6.90;4.40;;;-8.00;99.90;;;;;;4391259;32;20077;-63
2022/03/09 09:25:36;;;;;;;5.90;4.18;;;-8.00;99.90;;;;;;4390486;32;20542;-62
2022/03/09 09:28:03;;;;;;;6.75;4.35;;;-8.00;99.90;;;;;;4403686;32;20592;-62
2022/03/09 09:30:32;;;;;;;9.98;5.30;;;-7.90;99.90;;;;;;4390565;32;20081;-64
2022/03/09 09:32:59;;;;;;;9.80;5.07;;;-7.70;99.90;;;;;;4392175;32;20085;-63
2022/03/09 09:35:26;;;;;;;8.63;4.85;;;-7.50;99.90;;;;;;4390649;32;20074;-62
2022/03/09 09:37:52;;;;;;;8.77;5.82;;;-7.50;99.90;;;;;;4378260;32;20561;-62
2022/03/09 09:40:19;;;;;;;7.47;5.25;;;-7.70;99.90;;;;;;4390645;32;20166;-63
2022/03/09 09:42:46;;;;;;;8.60;5.22;;;-7.60;99.90;;;;;;4403341;32;20156;-63
2022/03/09 09:45:12;;;;;;;7.78;4.87;;;-7.60;99.90;;;;;;4391895;32;20512;-63
2022/03/09 09:47:39;;;;;;;7.37;4.80;;;-7.90;99.90;;;;;;4392087;32;20081;-62
2022/03/09 09:50:06;;;;;;;8.52;5.20;;;-7.70;99.90;;;;;;4391610;32;20104;-63
2022/03/09 09:52:33;;;;;;;7.65;4.93;;;-7.60;99.90;;;;;;4391851;32;20084;-63
2022/03/09 09:55:02;;;;;;;7.60;4.05;;;-7.80;99.90;;;;;;4392535;32;20108;-62
2022/03/09 09:57:32;;;;;;;7.03;4.75;;;-7.70;99.90;;;;;;4403945;32;20077;-68
2022/03/09 09:59:58;;;;;;;6.75;4.60;;;-7.70;99.90;;;;;;4391532;32;20092;-63
2022/03/09 10:02:25;;;;;;;7.32;4.62;;;-7.60;99.90;;;;;;4404204;32;20111;-63
2022/03/09 10:04:52;;;;;;;8.30;4.80;;;-7.10;99.90;;;;;;4392188;32;20084;-63
2022/03/09 10:07:18;;;;;;;7.97;5.12;;;-7.10;99.90;;;;;;4390599;32;20536;-61
2022/03/09 10:09:45;;;;;;;7.65;4.97;;;-7.20;99.90;;;;;;4390573;32;20074;-62
2022/03/09 10:12:13;;;;;;;6.43;4.18;;;-7.10;99.90;;;;;;4377881;32;20236;-62
2022/03/09 10:14:50;;;;;;;6.43;4.50;;;-7.30;99.90;;;;;;4391793;32;20448;-62
2022/03/09 10:17:29;;;;;;;6.55;4.20;;;-7.00;99.90;;;;;;4391775;32;20082;-62
2022/03/09 10:20:10;;;;;;;5.40;3.28;;;-6.90;99.90;;;;;;4390882;32;20200;-63
2022/03/09 10:22:42;;;;;;;6.37;5.22;;;-6.90;99.90;;;;;;4390697;32;20181;-62
2022/03/09 10:25:11;;;;;;;7.55;3.85;;;-7.00;99.90;;;;;;4389931;32;20096;-63
2022/03/09 10:27:43;;;;;;;7.87;5.55;;;-7.10;99.90;;;;;;4391536;32;20083;-63
2022/03/09 10:30:40;;;;;;;7.62;4.62;;;-7.30;99.90;;;;;;4391621;32;20078;-62
2022/03/09 10:33:09;;;;;;;5.40;4.10;;;-7.10;99.90;;;;;;4391173;32;20065;-63
2022/03/09 10:35:44;;;;;;;6.87;4.22;;;-7.30;99.90;;;;;;4389915;32;20076;-63
2022/03/09 10:38:16;;;;;;;6.65;4.32;;;-7.30;99.90;;;;;;4377192;32;20180;-62
2022/03/09 10:40:48;;;;;;;4.90;3.15;;;-7.50;99.90;;;;;;4391293;32;20070;-63
2022/03/09 10:43:29;;;;;;;7.50;4.85;;;-7.40;99.90;;;;;;4402925;32;20074;-62
2022/03/09 10:46:13;;;;;;;7.05;4.47;;;-7.50;99.90;;;;;;4391026;32;20072;-63
2022/03/09 10:49:00;;;;;;;6.40;4.10;;;-7.30;99.90;;;;;;4402691;32;20082;-63
2022/03/09 10:51:38;;;;;;;7.43;5.40;;;-7.10;99.90;;;;;;4389884;32;20081;-62
2022/03/09 10:54:16;;;;;;;8.38;4.95;;;-7.50;99.90;;;;;;4391454;32;20074;-63
2022/03/09 10:56:44;;;;;;;6.35;4.72;;;-7.30;99.90;;;;;;4391407;32;20169;-63
2022/03/09 10:59:18;;;;;;;6.72;4.07;;;-7.50;99.90;;;;;;4390669;32;20076;-63
2022/03/09 11:02:08;;;;;;;6.18;3.78;;;-7.30;99.90;;;;;;4402068;32;20074;-63
2022/03/09 11:04:34;;;;;;;6.65;4.70;;;-7.30;99.90;;;;;;4391503;32;20069;-63
2022/03/09 11:07:01;;;;;;;6.53;4.18;;;-7.10;99.90;;;;;;4389641;32;20081;-63
2022/03/09 11:09:28;;;;;;;6.37;4.15;;;-7.40;99.90;;;;;;4389548;32;20085;-63
2022/03/09 11:11:55;;;;;;;7.53;4.70;;;-7.20;99.90;;;;;;4402365;32;20088;-64
2022/03/09 11:14:25;;;;;;;8.10;4.80;;;-7.50;99.90;;;;;;4377535;32;20081;-63
2022/03/09 11:16:57;;;;;;;7.28;4.68;;;-7.50;99.90;;;;;;4391577;32;20166;-62
2022/03/09 11:19:24;;;;;;;7.03;3.87;;;-7.50;99.90;;;;;;4402417;32;20089;-63
2022/03/09 11:21:51;;;;;;;6.78;4.28;;;-7.00;99.90;;;;;;4390203;32;20157;-63
2022/03/09 11:24:19;;;;;;;6.45;4.07;;;-7.10;99.90;;;;;;4402183;32;20073;-63
2022/03/09 11:26:53;;;;;;;5.50;3.53;;;-7.40;99.90;;;;;;4391354;32;20077;-63
2022/03/09 11:29:34;;;;;;;8.35;4.05;;;-7.40;99.90;;;;;;4389339;32;20093;-64
2022/03/09 11:32:06;;;;;;;8.15;4.30;;;-7.30;99.90;;;;;;4390312;32;20158;-62
2022/03/09 11:34:51;;;;;;;6.70;4.00;;;-7.40;99.90;;;;;;4390872;32;20081;-63
2022/03/09 11:37:48;;;;;;;6.20;4.30;;;-7.20;99.90;;;;;;4391245;32;20180;-65
2022/03/09 11:40:15;;;;;;;7.87;4.97;;;-7.50;99.90;;;;;;4379693;32;20065;-62
2022/03/09 11:42:45;;;;;;;6.50;4.15;;;-7.30;99.90;;;;;;4391945;32;20531;-63
2022/03/09 11:45:15;;;;;;;5.95;3.62;;;-7.30;99.90;;;;;;4392080;32;20250;-63
2022/03/09 11:48:20;;;;;;;6.25;3.75;;;-7.20;99.90;;;;;;4394169;32;20073;-63
2022/03/09 11:50:46;;;;;;;5.22;3.53;;;-7.00;99.90;;;;;;4391893;32;20124;-63
2022/03/09 11:53:15;;;;;;;6.57;3.95;;;-7.20;99.90;;;;;;4393809;32;20070;-62
2022/03/09 11:55:42;;;;;;;6.65;4.30;;;-7.00;99.90;;;;;;4391695;32;20068;-63
2022/03/09 11:58:12;;;;;;;9.38;4.40;;;-7.20;99.90;;;;;;4391943;32;20088;-63
2022/03/09 12:01:03;;;;;;;5.97;4.00;;;-7.30;99.90;;;;;;4404774;32;20077;-63
2022/03/09 12:03:37;;;;;;;4.93;3.25;;;-7.30;99.90;;;;;;4391917;32;20085;-64
2022/03/09 12:06:04;;;;;;;5.55;3.72;;;-7.40;99.90;;;;;;4404556;32;20066;-62
2022/03/09 12:08:47;;;;;;;6.50;3.87;;;-7.30;99.90;;;;;;4404959;32;20520;-62
2022/03/09 12:11:18;;;;;;;5.72;4.28;;;-7.40;99.90;;;;;;4393138;32;20534;-63
2022/03/09 12:13:46;;;;;;;8.07;3.55;;;-7.60;99.90;;;;;;4391802;32;20073;-63
2022/03/09 12:16:18;;;;;;;7.00;3.97;;;-7.50;99.90;;;;;;4393540;32;20097;-62
2022/03/09 12:19:01;;;;;;;6.57;4.50;;;-7.50;99.90;;;;;;4392274;32;20514;-62
2022/03/09 12:21:27;;;;;;;6.97;4.68;;;-7.60;99.90;;;;;;4391959;32;20069;-63
2022/03/09 12:24:06;;;;;;;5.78;3.60;;;-7.50;99.90;;;;;;4392014;32;20073;-62
2022/03/09 12:26:44;;;;;;;6.82;4.15;;;-7.40;99.90;;;;;;4379284;32;20081;-63
2022/03/09 12:29:34;;;;;;;6.20;4.55;;;-7.40;99.90;;;;;;4391302;32;20170;-62
2022/03/09 12:32:03;;;;;;;6.53;4.62;;;-7.50;99.90;;;;;;4381701;32;20097;-62
2022/03/09 12:34:35;;;;;;;7.25;4.78;;;-7.60;99.90;;;;;;4391395;32;20449;-63
2022/03/09 12:37:02;;;;;;;7.70;4.47;;;-7.40;99.90;;;;;;4404638;32;20448;-62
2022/03/09 12:39:30;;;;;;;8.32;4.22;;;-7.40;99.90;;;;;;4392956;32;20141;-63
2022/03/09 12:41:59;;;;;;;7.93;4.65;;;-7.50;99.90;;;;;;4393077;32;20503;-63
2022/03/09 12:44:30;;;;;;;6.25;4.37;;;-7.60;99.90;;;;;;4366737;32;20433;-62
2022/03/09 12:47:03;;;;;;;7.93;4.07;;;-7.60;99.90;;;;;;4392798;32;20088;-62
2022/03/09 12:49:41;;;;;;;6.20;4.07;;;-7.50;99.90;;;;;;4378143;32;20524;-63
2022/03/09 12:52:20;;;;;;;6.55;4.37;;;-7.40;99.90;;;;;;4391770;32;20081;-62